Time;durP1;ratioP1;P1;durP2;ratioP2;P2;SDS_P1;SDS_P2;PMS_P1;PMS_P2;Temp;Humidity;BMP_temperature;BMP_pressure;BME280_temperature;BME280_humidity;BME280_pressure;Samples;Min_cycle;Max_cycle;Signal;HPM_P1;HPM_P2
2022/01/27 00:00:36;;;;;;;49.47;23.88;;;4.60;99.90;;;;;;6149216;23;20037;-81
2022/01/27 00:05:34;;;;;;;59.45;25.95;;;4.20;99.90;;;;;;6149113;23;20024;-81
2022/01/27 00:13:10;;;;;;;52.67;25.52;;;4.20;99.90;;;;;;6148872;23;20055;-81
2022/01/27 00:15:38;;;;;;;55.55;24.27;;;4.20;99.90;;;;;;6123782;23;20059;-81
2022/01/27 00:18:12;;;;;;;52.05;24.48;;;4.40;99.90;;;;;;6148771;23;20072;-81
2022/01/27 00:20:38;;;;;;;55.72;25.15;;;4.20;99.90;;;;;;6124706;23;20453;-81
2022/01/27 00:23:03;;;;;;;52.45;24.00;;;4.20;99.90;;;;;;6124030;23;20032;-81
2022/01/27 00:25:29;;;;;;;51.10;24.45;;;4.20;99.90;;;;;;6124369;23;20021;-81
2022/01/27 00:27:55;;;;;;;47.40;23.05;;;4.20;99.90;;;;;;6148508;23;20037;-81
2022/01/27 00:30:21;;;;;;;48.63;24.98;;;4.90;99.90;;;;;;6124439;23;20021;-81
2022/01/27 00:32:47;;;;;;;48.53;23.08;;;4.20;99.90;;;;;;6148684;23;20018;-81
2022/01/27 00:35:13;;;;;;;52.28;23.08;;;4.20;99.90;;;;;;6148827;23;20013;-81
2022/01/27 00:37:39;;;;;;;49.70;23.58;;;4.20;99.90;;;;;;6148866;23;20056;-81
2022/01/27 00:40:07;;;;;;;45.95;23.55;;;4.30;99.90;;;;;;6148653;23;20464;-81
2022/01/27 00:42:33;;;;;;;45.83;23.55;;;4.20;99.90;;;;;;6124622;23;20052;-81
2022/01/27 00:44:59;;;;;;;51.45;22.48;;;4.30;99.90;;;;;;6148254;23;20377;-81
2022/01/27 00:47:25;;;;;;;47.92;22.70;;;5.10;99.90;;;;;;6148883;23;20017;-81
2022/01/27 00:49:51;;;;;;;50.75;23.50;;;3.20;99.90;;;;;;6148491;23;20076;-81
2022/01/27 00:52:25;;;;;;;41.50;20.60;;;4.30;99.90;;;;;;6124391;23;20549;-81
2022/01/27 00:54:53;;;;;;;51.83;22.30;;;4.40;99.90;;;;;;6124641;23;20105;-81
2022/01/27 00:57:36;;;;;;;46.78;23.42;;;4.30;99.90;;;;;;6124101;23;20017;-81
2022/01/27 01:00:08;;;;;;;45.33;22.88;;;4.30;99.90;;;;;;6148697;23;20055;-81
2022/01/27 01:02:55;;;;;;;51.30;23.85;;;4.20;99.90;;;;;;6149074;23;20013;-81
2022/01/27 01:08:10;;;;;;;48.70;24.05;;;4.20;99.90;;;;;;6148736;23;20018;-81
2022/01/27 01:32:19;;;;;;;53.72;24.23;;;4.40;99.90;;;;;;6150461;23;20022;-81
2022/01/27 01:34:48;;;;;;;41.67;21.88;;;4.30;99.90;;;;;;6150136;23;20040;-81
2022/01/27 01:37:17;;;;;;;46.47;23.38;;;4.30;99.90;;;;;;6150312;23;20017;-82
2022/01/27 01:39:43;;;;;;;49.53;23.60;;;4.40;99.90;;;;;;6125353;23;20451;-81
2022/01/27 01:42:10;;;;;;;45.92;24.92;;;4.30;99.90;;;;;;6150234;23;20088;-81
2022/01/27 01:44:37;;;;;;;46.72;21.02;;;4.40;99.90;;;;;;6149712;23;20017;-81
2022/01/27 01:47:03;;;;;;;44.15;22.20;;;4.30;99.90;;;;;;6125577;23;20009;-81
2022/01/27 01:49:29;;;;;;;47.45;21.60;;;4.30;99.90;;;;;;6150024;23;20014;-81
2022/01/27 01:51:57;;;;;;;39.58;20.92;;;4.30;99.90;;;;;;6150260;23;20029;-81
2022/01/27 01:54:23;;;;;;;40.53;21.35;;;4.90;99.90;;;;;;6125101;23;20009;-81
2022/01/27 01:56:49;;;;;;;43.88;22.58;;;4.30;99.90;;;;;;6101402;23;20360;-81
2022/01/27 01:59:15;;;;;;;43.67;20.65;;;4.90;99.90;;;;;;6100713;23;20100;-81
2022/01/27 02:01:41;;;;;;;44.60;21.77;;;4.30;99.90;;;;;;6125412;23;20107;-81
2022/01/27 02:04:09;;;;;;;42.17;21.10;;;4.50;99.90;;;;;;6100653;23;20028;-81
2022/01/27 02:06:46;;;;;;;39.88;21.15;;;4.30;99.90;;;;;;6101134;23;20025;-81
2022/01/27 02:09:48;;;;;;;43.40;21.30;;;4.30;99.90;;;;;;6125202;23;20028;-81
2022/01/27 02:20:28;;;;;;;34.33;17.92;;;4.40;99.90;;;;;;6124796;23;20028;-81
2022/01/27 02:22:53;;;;;;;42.80;21.33;;;4.40;99.90;;;;;;6125406;23;20364;-81
2022/01/27 02:25:19;;;;;;;36.42;19.55;;;4.40;99.90;;;;;;6124795;23;20026;-81
2022/01/27 02:27:45;;;;;;;38.72;20.38;;;4.40;99.90;;;;;;6100913;23;20017;-81
2022/01/27 02:30:11;;;;;;;42.97;22.42;;;4.40;99.90;;;;;;6124409;23;20524;-81
2022/01/27 02:32:37;;;;;;;40.50;21.17;;;4.40;99.90;;;;;;6125268;23;20056;-81
2022/01/27 02:35:06;;;;;;;41.60;20.33;;;4.40;99.90;;;;;;6124741;23;20018;-81
2022/01/27 02:37:32;;;;;;;38.40;19.40;;;4.40;99.90;;;;;;6124665;23;20072;-81
2022/01/27 02:39:57;;;;;;;42.65;21.17;;;4.40;99.90;;;;;;6124460;23;20017;-81
2022/01/27 02:42:35;;;;;;;40.80;21.13;;;4.40;99.90;;;;;;6125097;23;20027;-81
2022/01/27 02:45:04;;;;;;;34.05;18.35;;;4.40;99.90;;;;;;6124482;23;20041;-81
2022/01/27 02:47:30;;;;;;;44.80;21.35;;;4.50;99.90;;;;;;6125117;23;20026;-81
2022/01/27 02:49:56;;;;;;;40.72;20.77;;;4.50;99.90;;;;;;6124373;23;20717;-81
2022/01/27 02:52:22;;;;;;;44.33;21.65;;;4.50;99.90;;;;;;6124961;23;20028;-81
2022/01/27 02:54:48;;;;;;;45.47;22.60;;;4.50;99.90;;;;;;6100763;23;20453;-81
2022/01/27 02:57:14;;;;;;;43.60;23.20;;;4.40;99.90;;;;;;6124670;23;20353;-81
2022/01/27 02:59:39;;;;;;;40.08;21.00;;;4.50;99.90;;;;;;6124663;23;20018;-81
2022/01/27 03:02:05;;;;;;;46.72;22.67;;;4.50;99.90;;;;;;6124867;23;20775;-81
2022/01/27 03:04:33;;;;;;;46.80;20.17;;;4.40;99.90;;;;;;6124561;23;20119;-81
2022/01/27 03:07:04;;;;;;;43.83;22.25;;;4.50;99.90;;;;;;6100349;23;20116;-81
2022/01/27 03:09:30;;;;;;;42.80;21.25;;;4.50;99.90;;;;;;6124271;23;20214;-82
2022/01/27 03:12:07;;;;;;;39.40;20.33;;;4.50;99.90;;;;;;6099866;23;20017;-81
2022/01/27 03:14:34;;;;;;;40.28;20.85;;;4.50;99.90;;;;;;6124519;23;20014;-81
2022/01/27 03:17:01;;;;;;;43.30;21.02;;;4.50;99.90;;;;;;6124280;23;20032;-81
2022/01/27 03:19:27;;;;;;;42.05;21.70;;;4.50;99.90;;;;;;6100179;23;20022;-81
2022/01/27 03:21:54;;;;;;;39.40;19.20;;;4.50;99.90;;;;;;6124509;23;20100;-81
2022/01/27 03:24:21;;;;;;;44.20;21.00;;;4.50;99.90;;;;;;6100230;23;20018;-81
2022/01/27 03:26:47;;;;;;;42.42;21.00;;;4.50;99.90;;;;;;6124120;23;20017;-81
2022/01/27 03:29:16;;;;;;;44.55;20.00;;;4.60;99.90;;;;;;6100044;23;20022;-81
2022/01/27 03:31:42;;;;;;;46.55;20.60;;;4.50;99.90;;;;;;6099782;23;20013;-81
2022/01/27 03:34:07;;;;;;;36.45;21.00;;;5.00;99.90;;;;;;6124586;23;20329;-82
2022/01/27 03:36:33;;;;;;;39.13;19.10;;;4.60;99.90;;;;;;6123958;23;20018;-82
2022/01/27 03:38:59;;;;;;;44.17;19.90;;;4.60;99.90;;;;;;6124505;23;20025;-81
2022/01/27 03:41:31;;;;;;;42.60;20.33;;;4.60;99.90;;;;;;6124026;23;20357;-81
2022/01/27 03:43:56;;;;;;;35.38;19.58;;;5.40;99.90;;;;;;6122761;23;20025;-81
2022/01/27 03:46:22;;;;;;;40.65;21.00;;;4.70;99.90;;;;;;6124345;23;20710;-81
2022/01/27 03:48:48;;;;;;;41.25;19.77;;;4.70;99.90;;;;;;6124505;23;20130;-81
2022/01/27 03:51:13;;;;;;;44.92;22.23;;;4.70;99.90;;;;;;6125045;23;20627;-81
2022/01/27 03:53:39;;;;;;;42.17;20.67;;;5.20;99.90;;;;;;6125246;23;20021;-81
2022/01/27 03:56:05;;;;;;;40.28;20.63;;;4.60;99.90;;;;;;6129705;23;20023;-81
2022/01/27 03:58:31;;;;;;;48.50;21.55;;;4.60;99.90;;;;;;6154837;23;20048;-81
2022/01/27 04:00:57;;;;;;;39.70;20.00;;;4.60;99.90;;;;;;6132029;23;20047;-81
2022/01/27 04:03:23;;;;;;;49.03;20.98;;;4.50;99.90;;;;;;6111405;23;20150;-81
2022/01/27 04:05:54;;;;;;;44.15;22.23;;;5.30;99.90;;;;;;6106909;23;20059;-81
2022/01/27 04:08:21;;;;;;;46.55;23.02;;;4.50;99.90;;;;;;6135526;23;20017;-81
2022/01/27 04:10:48;;;;;;;50.78;24.10;;;4.70;99.90;;;;;;6119628;23;20416;-81
2022/01/27 04:13:14;;;;;;;42.83;21.95;;;4.60;99.90;;;;;;6139865;23;20044;-81
2022/01/27 04:15:42;;;;;;;45.78;22.23;;;4.50;99.90;;;;;;6145244;23;20017;-82
2022/01/27 04:18:08;;;;;;;42.25;22.15;;;4.50;99.90;;;;;;6160014;23;20028;-81
2022/01/27 04:20:34;;;;;;;40.80;19.92;;;4.50;99.90;;;;;;6131371;23;20101;-82
2022/01/27 04:23:00;;;;;;;45.13;21.77;;;4.50;99.90;;;;;;6131079;23;20056;-81
2022/01/27 04:25:25;;;;;;;44.28;19.90;;;4.50;99.90;;;;;;6106362;23;20579;-81
2022/01/27 04:27:56;;;;;;;42.63;21.52;;;4.60;99.90;;;;;;6154350;23;20025;-81
2022/01/27 04:30:24;;;;;;;39.85;20.20;;;4.50;99.90;;;;;;6130798;23;20041;-82
2022/01/27 04:32:58;;;;;;;43.88;22.08;;;4.80;99.90;;;;;;6105447;23;20100;-82
2022/01/27 04:35:27;;;;;;;39.78;20.65;;;4.60;99.90;;;;;;6107264;23;20017;-81
2022/01/27 04:40:32;;;;;;;47.03;19.67;;;4.60;99.90;;;;;;6153426;23;20056;-82
2022/01/27 04:43:09;;;;;;;38.15;19.45;;;4.60;99.90;;;;;;6131169;23;20059;-82
2022/01/27 04:46:26;;;;;;;45.45;22.15;;;4.60;99.90;;;;;;6108450;23;20017;-81
2022/01/27 04:48:26;;;;;;;49.53;21.05;;;4.70;99.90;;;;;;6123350;23;20391;-82
2022/01/27 04:50:52;;;;;;;45.47;20.27;;;4.70;99.90;;;;;;6155893;23;20483;-81
2022/01/27 04:53:28;;;;;;;44.85;22.08;;;4.60;99.90;;;;;;6106328;23;20029;-81
2022/01/27 04:55:56;;;;;;;40.67;19.08;;;4.70;99.90;;;;;;6133517;23;20317;-81
2022/01/27 04:58:30;;;;;;;43.35;20.38;;;4.70;99.90;;;;;;6155265;23;20052;-81
2022/01/27 05:00:58;;;;;;;41.47;20.23;;;5.40;99.90;;;;;;6132716;23;20071;-81
2022/01/27 05:03:35;;;;;;;40.47;18.83;;;4.90;99.90;;;;;;6131909;23;20017;-81
2022/01/27 05:06:01;;;;;;;41.67;20.38;;;4.70;99.90;;;;;;6108867;23;20075;-81
2022/01/27 05:08:27;;;;;;;41.33;18.38;;;4.70;99.90;;;;;;6130774;23;20043;-81
2022/01/27 05:10:58;;;;;;;44.35;20.92;;;4.70;99.90;;;;;;6131281;23;20096;-81
2022/01/27 05:13:26;;;;;;;41.53;20.58;;;4.80;99.90;;;;;;6131611;23;20013;-81
2022/01/27 05:15:53;;;;;;;44.03;20.30;;;4.80;99.90;;;;;;6131472;23;20512;-81
2022/01/27 05:18:20;;;;;;;41.00;17.77;;;4.90;99.90;;;;;;6106431;23;20024;-81
2022/01/27 05:20:46;;;;;;;37.60;19.17;;;4.80;99.90;;;;;;6106713;23;20049;-81
2022/01/27 05:23:12;;;;;;;41.88;18.45;;;5.40;99.90;;;;;;6155109;23;20527;-81
2022/01/27 05:25:37;;;;;;;41.78;19.95;;;5.00;99.90;;;;;;6155543;23;20021;-81
2022/01/27 05:28:04;;;;;;;38.28;17.63;;;4.90;99.90;;;;;;6154701;23;20017;-81
2022/01/27 05:30:29;;;;;;;35.63;17.83;;;4.90;99.90;;;;;;6155145;23;20096;-81
2022/01/27 05:32:55;;;;;;;39.78;19.45;;;5.10;99.90;;;;;;6130596;23;20534;-82
2022/01/27 05:35:21;;;;;;;42.08;19.42;;;4.90;99.90;;;;;;6154989;23;20067;-81
2022/01/27 05:37:46;;;;;;;39.50;18.02;;;4.90;99.90;;;;;;6130577;23;20033;-81
2022/01/27 05:40:12;;;;;;;45.53;20.27;;;5.00;99.90;;;;;;6130606;23;20096;-81
2022/01/27 05:42:38;;;;;;;39.60;17.75;;;4.90;99.90;;;;;;6130154;23;20017;-81
2022/01/27 05:45:04;;;;;;;34.17;18.55;;;5.00;99.90;;;;;;6154360;23;20083;-81
2022/01/27 05:47:30;;;;;;;38.70;19.42;;;4.90;99.90;;;;;;6154907;23;20056;-81
2022/01/27 05:49:56;;;;;;;43.03;19.48;;;5.00;99.90;;;;;;6130103;23;20013;-81
2022/01/27 05:52:21;;;;;;;52.40;19.42;;;5.00;99.90;;;;;;6130505;23;20021;-81
2022/01/27 05:54:47;;;;;;;34.50;17.27;;;5.00;99.90;;;;;;6105506;23;20028;-81
2022/01/27 05:57:13;;;;;;;47.90;19.58;;;5.10;99.90;;;;;;6130302;23;20021;-81
2022/01/27 05:59:40;;;;;;;37.20;18.05;;;5.00;99.90;;;;;;6130159;23;20013;-81
2022/01/27 06:02:05;;;;;;;43.65;19.80;;;5.10;99.90;;;;;;6130656;23;20152;-81
2022/01/27 06:04:31;;;;;;;37.67;18.38;;;5.00;99.90;;;;;;6105398;23;20048;-81
2022/01/27 06:06:57;;;;;;;45.58;20.55;;;5.10;99.90;;;;;;6106308;23;20019;-81
2022/01/27 06:09:23;;;;;;;44.13;19.48;;;5.00;99.90;;;;;;6155036;23;20471;-81
2022/01/27 06:11:50;;;;;;;41.38;20.23;;;5.00;99.90;;;;;;6154495;23;20017;-81
2022/01/27 06:14:16;;;;;;;40.78;19.85;;;4.90;99.90;;;;;;6129868;23;20005;-81
2022/01/27 06:16:44;;;;;;;35.70;17.30;;;5.00;99.90;;;;;;6130201;23;20017;-81
2022/01/27 06:19:10;;;;;;;38.63;18.70;;;5.30;99.90;;;;;;6129876;23;20503;-80
2022/01/27 06:21:36;;;;;;;38.72;18.42;;;5.00;99.90;;;;;;6130405;23;20017;-81
2022/01/27 06:24:03;;;;;;;48.67;20.15;;;4.90;99.90;;;;;;6129775;23;20048;-81
2022/01/27 06:26:29;;;;;;;48.35;21.08;;;4.90;99.90;;;;;;6105722;23;20464;-81
2022/01/27 06:28:56;;;;;;;42.20;19.73;;;4.90;99.90;;;;;;6105366;23;20025;-81
2022/01/27 06:31:22;;;;;;;50.85;19.35;;;4.90;99.90;;;;;;6130186;23;20013;-81
2022/01/27 06:33:48;;;;;;;49.65;21.52;;;5.30;99.90;;;;;;6129424;23;20087;-80
2022/01/27 06:36:14;;;;;;;49.70;22.63;;;5.20;99.90;;;;;;6105290;23;20056;-81
2022/01/27 06:38:39;;;;;;;53.10;21.80;;;4.90;99.90;;;;;;6129896;23;20031;-81
2022/01/27 06:41:05;;;;;;;49.45;21.77;;;4.90;99.90;;;;;;6129710;23;20024;-80
2022/01/27 06:43:31;;;;;;;40.95;19.02;;;4.90;99.90;;;;;;6105321;23;20178;-81
2022/01/27 06:45:57;;;;;;;57.00;22.05;;;4.90;99.90;;;;;;6105396;23;20021;-81
2022/01/27 06:48:22;;;;;;;52.28;21.73;;;4.80;99.90;;;;;;6105067;23;20052;-81
2022/01/27 06:50:53;;;;;;;44.30;19.27;;;4.90;99.90;;;;;;6105234;23;20017;-81
2022/01/27 06:53:19;;;;;;;49.97;22.48;;;5.70;99.90;;;;;;6130454;23;20441;-80
2022/01/27 06:55:45;;;;;;;44.92;21.45;;;4.90;99.90;;;;;;6129520;23;20052;-80
2022/01/27 06:58:10;;;;;;;52.40;22.27;;;4.90;99.90;;;;;;6154503;23;20017;-80
2022/01/27 07:00:36;;;;;;;46.88;20.15;;;4.90;99.90;;;;;;6104990;23;20025;-80
2022/01/27 07:03:02;;;;;;;49.15;20.75;;;4.80;99.90;;;;;;6105500;23;20017;-80
2022/01/27 07:05:31;;;;;;;50.33;22.20;;;5.00;99.90;;;;;;6129175;23;20581;-80
2022/01/27 07:07:56;;;;;;;48.85;22.90;;;4.90;99.90;;;;;;6154131;23;20025;-80
2022/01/27 07:10:22;;;;;;;47.40;21.20;;;4.90;99.90;;;;;;6129781;23;20530;-80
2022/01/27 07:12:48;;;;;;;40.58;19.38;;;4.90;99.90;;;;;;6129756;23;20101;-80
2022/01/27 07:15:14;;;;;;;50.10;21.80;;;5.00;99.90;;;;;;6153810;23;20025;-80
2022/01/27 07:17:40;;;;;;;47.45;20.52;;;4.90;99.90;;;;;;6154451;23;20039;-80
2022/01/27 07:20:07;;;;;;;50.42;21.92;;;5.40;99.90;;;;;;6154135;23;20392;-80
2022/01/27 07:22:34;;;;;;;51.33;22.85;;;4.90;99.90;;;;;;6129198;23;20017;-80
2022/01/27 07:25:00;;;;;;;45.00;22.40;;;4.90;99.90;;;;;;6129955;23;20028;-80
2022/01/27 07:27:26;;;;;;;44.33;20.08;;;5.00;99.90;;;;;;6129346;23;20021;-80
2022/01/27 07:29:51;;;;;;;41.95;19.80;;;5.10;99.90;;;;;;6153941;23;20028;-80
2022/01/27 07:32:17;;;;;;;42.60;18.88;;;5.00;99.90;;;;;;6129204;23;20021;-80
2022/01/27 07:34:43;;;;;;;43.25;18.17;;;5.00;99.90;;;;;;6104793;23;20017;-80
2022/01/27 07:37:09;;;;;;;37.00;16.95;;;5.00;99.90;;;;;;6105525;23;20095;-80
2022/01/27 07:39:34;;;;;;;46.00;19.85;;;5.00;99.90;;;;;;6105403;23;20463;-80
2022/01/27 07:42:01;;;;;;;44.80;18.88;;;5.10;99.90;;;;;;6105551;23;20013;-80
2022/01/27 07:44:27;;;;;;;43.25;18.05;;;5.00;99.90;;;;;;6104425;23;20048;-80
2022/01/27 07:46:54;;;;;;;36.65;18.35;;;5.10;99.90;;;;;;6129304;23;20452;-80
2022/01/27 07:49:20;;;;;;;28.85;14.77;;;5.10;99.90;;;;;;6153705;23;20048;-80
2022/01/27 07:51:46;;;;;;;41.75;17.55;;;5.10;99.90;;;;;;6101855;23;20020;-80
2022/01/27 07:54:12;;;;;;;34.72;17.48;;;5.10;99.90;;;;;;6124328;23;20017;-80
2022/01/27 07:56:38;;;;;;;38.60;17.52;;;5.10;99.90;;;;;;6123785;23;20445;-80
2022/01/27 07:59:04;;;;;;;37.67;17.05;;;5.20;99.90;;;;;;6100150;23;20033;-80
2022/01/27 08:01:30;;;;;;;30.65;14.63;;;5.20;99.90;;;;;;6123993;23;20052;-80
2022/01/27 08:03:55;;;;;;;31.83;16.42;;;5.20;99.90;;;;;;6099911;23;20456;-79
2022/01/27 08:06:21;;;;;;;31.95;15.27;;;5.30;99.90;;;;;;6123333;23;20330;-80
2022/01/27 08:08:48;;;;;;;31.75;15.75;;;5.30;99.90;;;;;;6124339;23;20638;-81
2022/01/27 08:11:14;;;;;;;26.48;14.40;;;5.30;99.90;;;;;;6123601;23;20013;-81
2022/01/27 08:13:39;;;;;;;30.08;15.20;;;5.30;99.90;;;;;;6100374;23;20096;-84
2022/01/27 08:16:05;;;;;;;33.70;16.38;;;5.40;99.90;;;;;;6112428;23;20017;-82
2022/01/27 08:18:31;;;;;;;25.33;12.82;;;5.40;99.90;;;;;;6115613;23;20091;-82
2022/01/27 08:20:57;;;;;;;23.38;12.30;;;5.40;99.90;;;;;;6116861;23;20338;-80
2022/01/27 08:23:22;;;;;;;28.40;13.90;;;5.50;99.90;;;;;;6117297;23;20022;-82
2022/01/27 08:25:54;;;;;;;27.92;14.05;;;5.40;99.90;;;;;;6116959;23;20021;-79
2022/01/27 08:28:29;;;;;;;33.80;14.88;;;5.40;99.90;;;;;;6115520;23;20065;-81
2022/01/27 08:30:57;;;;;;;30.83;15.30;;;5.50;99.90;;;;;;6117627;23;20014;-83
2022/01/27 08:33:23;;;;;;;31.52;15.85;;;5.60;99.90;;;;;;6092828;23;20177;-82
2022/01/27 08:35:50;;;;;;;36.38;16.02;;;5.60;99.90;;;;;;6115736;23;20308;-82
2022/01/27 08:38:15;;;;;;;35.95;16.77;;;5.60;99.90;;;;;;6092872;23;20017;-82
2022/01/27 08:40:42;;;;;;;38.17;17.10;;;5.60;99.90;;;;;;6117131;23;20680;-82
2022/01/27 08:43:08;;;;;;;40.33;18.92;;;5.60;99.90;;;;;;6093435;23;20028;-83
2022/01/27 08:45:35;;;;;;;40.20;18.98;;;5.70;99.90;;;;;;6090490;23;20053;-83
2022/01/27 08:48:01;;;;;;;40.00;17.27;;;5.90;99.90;;;;;;6116371;23;20025;-82
2022/01/27 08:50:28;;;;;;;42.15;19.25;;;5.70;99.90;;;;;;6093466;23;20036;-82
2022/01/27 08:52:54;;;;;;;44.85;18.17;;;5.80;99.90;;;;;;6128290;23;20053;-82
2022/01/27 08:55:21;;;;;;;40.25;17.77;;;5.70;99.90;;;;;;6118412;23;20144;-82
2022/01/27 08:57:47;;;;;;;49.45;20.05;;;5.80;99.90;;;;;;6144232;23;20615;-80
2022/01/27 09:00:14;;;;;;;49.60;19.13;;;5.80;99.90;;;;;;6153045;23;20079;-81
2022/01/27 09:02:40;;;;;;;41.17;19.50;;;5.90;99.90;;;;;;6153356;23;20032;-82
2022/01/27 09:05:06;;;;;;;44.05;20.10;;;5.90;99.90;;;;;;6128093;23;20400;-82
2022/01/27 09:07:34;;;;;;;57.38;21.30;;;6.00;99.90;;;;;;6151484;23;20100;-82
2022/01/27 09:10:00;;;;;;;48.60;19.60;;;6.00;99.90;;;;;;6164397;23;20014;-83
2022/01/27 09:12:25;;;;;;;44.00;17.75;;;6.00;99.90;;;;;;6145709;23;20169;-83
2022/01/27 09:14:51;;;;;;;46.30;17.42;;;6.10;99.90;;;;;;6177326;23;20013;-83
2022/01/27 09:17:17;;;;;;;45.78;18.73;;;6.10;99.90;;;;;;6156588;23;20025;-83
2022/01/27 09:19:45;;;;;;;42.42;18.40;;;6.20;99.90;;;;;;6158770;23;20029;-83
2022/01/27 09:22:14;;;;;;;41.40;16.08;;;6.20;99.90;;;;;;6180015;23;20022;-83
2022/01/27 09:27:17;;;;;;;41.65;16.40;;;6.40;99.90;;;;;;6152124;23;20100;-84
2022/01/27 09:29:45;;;;;;;38.03;17.08;;;6.40;99.90;;;;;;6151309;23;20040;-81
2022/01/27 09:32:11;;;;;;;32.83;14.85;;;6.50;99.90;;;;;;6126002;23;20014;-81
2022/01/27 09:34:37;;;;;;;36.45;15.25;;;7.30;99.90;;;;;;6149919;23;20021;-83
2022/01/27 09:37:03;;;;;;;37.70;14.85;;;6.50;99.90;;;;;;6126284;23;20017;-82
2022/01/27 09:39:30;;;;;;;38.88;14.63;;;6.90;99.90;;;;;;6150741;23;20132;-83
2022/01/27 09:41:57;;;;;;;33.90;14.93;;;6.60;99.90;;;;;;6149793;23;20469;-82
2022/01/27 09:44:29;;;;;;;37.28;14.07;;;6.70;99.90;;;;;;6149875;23;20017;-82
2022/01/27 09:47:03;;;;;;;33.42;12.73;;;6.80;99.90;;;;;;6126579;23;20010;-82
2022/01/27 09:49:34;;;;;;;31.35;13.25;;;6.70;99.90;;;;;;6150118;23;20026;-82
2022/01/27 09:52:01;;;;;;;35.17;13.63;;;6.80;99.90;;;;;;6150182;23;20088;-82
2022/01/27 09:54:27;;;;;;;30.58;12.40;;;6.80;99.90;;;;;;6126103;23;20013;-82
2022/01/27 09:56:53;;;;;;;37.22;12.98;;;6.90;99.90;;;;;;6149856;23;20034;-82
2022/01/27 09:59:21;;;;;;;36.85;13.50;;;6.90;99.90;;;;;;6138019;23;20089;-82
2022/01/27 10:02:06;;;;;;;25.88;11.57;;;7.00;99.90;;;;;;6141142;23;20021;-82
2022/01/27 10:04:42;;;;;;;31.25;10.52;;;7.00;99.90;;;;;;6125566;23;20025;-82
2022/01/27 10:07:09;;;;;;;29.35;11.05;;;7.10;99.90;;;;;;6149836;23;20100;-82
2022/01/27 10:09:34;;;;;;;26.98;10.93;;;7.10;99.90;;;;;;6125557;23;20025;-81
2022/01/27 10:12:05;;;;;;;30.90;10.55;;;7.10;99.90;;;;;;6149981;23;20018;-81
2022/01/27 10:14:37;;;;;;;24.98;9.00;;;7.10;99.90;;;;;;6127896;23;20014;-81
2022/01/27 10:17:11;;;;;;;23.35;10.05;;;7.20;99.90;;;;;;6158074;23;20072;-86
2022/01/27 10:19:37;;;;;;;25.75;10.40;;;7.20;99.90;;;;;;6150274;23;20040;-83
2022/01/27 10:22:09;;;;;;;25.45;9.18;;;7.30;99.90;;;;;;6138673;23;20017;-82
2022/01/27 10:24:35;;;;;;;21.95;8.35;;;7.30;99.90;;;;;;6162486;23;20068;-82
2022/01/27 10:27:30;;;;;;;35.08;9.23;;;7.30;99.90;;;;;;6155710;23;20018;-81
2022/01/27 10:32:36;;;;;;;19.05;7.70;;;7.40;99.90;;;;;;6154336;23;20025;-82
2022/01/27 10:35:04;;;;;;;27.40;10.23;;;7.40;99.90;;;;;;6126016;23;20017;-82
2022/01/27 10:37:55;;;;;;;19.80;9.32;;;7.40;99.90;;;;;;6150051;23;20021;-83
2022/01/27 10:40:33;;;;;;;19.15;7.50;;;7.40;99.90;;;;;;6150094;23;20017;-84
2022/01/27 10:43:24;;;;;;;22.42;8.30;;;7.50;99.90;;;;;;6125486;23;20456;-83
2022/01/27 10:46:32;;;;;;;19.40;7.80;;;7.50;99.90;;;;;;6174600;23;20017;-85
2022/01/27 10:49:08;;;;;;;19.33;7.53;;;7.60;99.90;;;;;;6149783;23;20028;-85
2022/01/27 10:51:43;;;;;;;19.45;7.47;;;7.60;99.90;;;;;;6150232;23;20017;-80
2022/01/27 10:54:35;;;;;;;15.98;6.28;;;7.70;99.90;;;;;;6150356;23;20025;-83
2022/01/27 10:57:01;;;;;;;17.02;7.10;;;7.70;99.90;;;;;;6149422;23;20024;-82
2022/01/27 10:59:28;;;;;;;17.65;6.88;;;7.80;99.90;;;;;;6125351;23;20416;-80
2022/01/27 11:01:55;;;;;;;22.15;7.47;;;7.80;99.90;;;;;;6150763;23;20017;-82
2022/01/27 11:04:31;;;;;;;13.95;7.22;;;7.90;99.90;;;;;;6175160;23;20507;-78
2022/01/27 12:12:36;;;;;;;17.45;5.03;;;8.20;99.90;;;;;;6134004;23;20032;-76
2022/01/27 12:15:07;;;;;;;17.48;5.10;;;8.30;99.90;;;;;;6099583;23;20035;-78
2022/01/27 12:17:34;;;;;;;14.23;5.00;;;8.30;99.90;;;;;;6125484;23;20088;-81
2022/01/27 12:20:07;;;;;;;18.75;4.68;;;8.30;99.90;;;;;;6126574;23;20245;-82
2022/01/27 12:22:40;;;;;;;19.95;5.18;;;8.30;99.90;;;;;;6101658;23;20394;-79
2022/01/27 12:25:08;;;;;;;14.73;4.82;;;8.40;99.90;;;;;;6128316;23;20021;-81
2022/01/27 12:27:35;;;;;;;14.95;3.50;;;8.40;99.90;;;;;;6127951;23;20513;-80
2022/01/27 12:30:01;;;;;;;21.60;4.60;;;8.40;99.90;;;;;;6129115;23;20014;-81
2022/01/27 12:32:29;;;;;;;14.48;4.65;;;8.50;99.90;;;;;;6152238;23;20117;-80
2022/01/27 12:35:01;;;;;;;14.05;4.20;;;8.50;99.90;;;;;;6106696;23;20068;-83
2022/01/27 12:37:42;;;;;;;21.05;4.03;;;8.50;99.90;;;;;;6154596;23;20187;-83
2022/01/27 12:40:20;;;;;;;17.48;4.57;;;8.50;99.90;;;;;;6164379;23;20032;-82
2022/01/27 12:43:00;;;;;;;15.98;4.35;;;8.80;99.90;;;;;;6139859;23;20032;-84
2022/01/27 12:45:31;;;;;;;14.45;4.07;;;8.60;99.90;;;;;;6167015;23;20112;-83
2022/01/27 12:48:01;;;;;;;14.68;3.60;;;8.60;99.90;;;;;;6135261;23;20017;-82
2022/01/27 12:50:28;;;;;;;15.05;3.50;;;8.60;99.90;;;;;;6160869;23;20017;-83
2022/01/27 12:53:02;;;;;;;16.58;3.35;;;8.60;99.90;;;;;;6136671;23;20035;-83
2022/01/27 12:55:34;;;;;;;17.60;4.25;;;8.60;99.90;;;;;;6162105;23;20048;-82
2022/01/27 12:58:08;;;;;;;19.15;4.82;;;8.60;99.90;;;;;;6164950;23;20017;-85
2022/01/27 13:00:42;;;;;;;16.67;3.80;;;8.60;99.90;;;;;;6164607;23;20065;-84
2022/01/27 13:03:09;;;;;;;15.02;4.40;;;8.60;99.90;;;;;;6165882;23;20080;-85
2022/01/27 13:05:39;;;;;;;12.50;3.67;;;8.60;99.90;;;;;;6141217;23;20013;-85
2022/01/27 13:08:10;;;;;;;9.07;3.88;;;8.60;99.90;;;;;;6166614;23;20021;-85
2022/01/27 13:10:37;;;;;;;21.80;4.20;;;8.60;99.90;;;;;;6166819;23;20024;-87
2022/01/27 13:13:14;;;;;;;17.90;3.90;;;8.60;99.90;;;;;;6167468;23;20021;-86
2022/01/27 13:15:40;;;;;;;12.63;4.50;;;8.60;99.90;;;;;;6144722;23;20009;-86
2022/01/27 13:18:23;;;;;;;14.68;3.25;;;8.70;99.90;;;;;;6167280;23;20021;-87
2022/01/27 13:20:54;;;;;;;19.40;4.78;;;8.70;99.90;;;;;;6145895;23;20036;-86
2022/01/27 13:25:49;;;;;;;15.93;3.88;;;8.70;99.90;;;;;;6157755;23;20563;-85
2022/01/27 13:28:20;;;;;;;11.93;3.28;;;8.80;99.90;;;;;;6157383;23;20021;-85
2022/01/27 13:30:49;;;;;;;19.55;4.45;;;8.80;99.90;;;;;;6157149;23;20060;-85
2022/01/27 13:33:17;;;;;;;19.85;4.28;;;8.70;99.90;;;;;;6132162;23;20044;-83
2022/01/27 13:35:43;;;;;;;13.63;3.40;;;8.70;99.90;;;;;;6132329;23;20076;-84
2022/01/27 13:38:18;;;;;;;15.48;3.65;;;8.70;99.90;;;;;;6156744;23;20032;-85
2022/01/27 13:43:38;;;;;;;19.17;4.18;;;8.60;99.90;;;;;;6156483;23;20052;-86
2022/01/27 13:46:04;;;;;;;21.27;4.22;;;8.60;99.90;;;;;;6132053;23;20025;-88
2022/01/27 13:48:29;;;;;;;15.45;2.95;;;8.60;99.90;;;;;;6156029;23;20017;-88
2022/01/27 13:50:59;;;;;;;15.07;4.18;;;8.60;99.90;;;;;;6132306;23;20044;-88
2022/01/27 13:53:25;;;;;;;14.48;3.40;;;8.80;99.90;;;;;;6139494;23;20017;-89
2022/01/27 13:56:02;;;;;;;13.82;3.47;;;8.60;99.90;;;;;;6142707;23;20332;-86
2022/01/27 13:58:29;;;;;;;17.90;3.60;;;8.60;99.90;;;;;;6122994;23;20275;-83
2022/01/27 14:01:12;;;;;;;22.35;4.00;;;8.50;99.90;;;;;;6172685;23;20091;-86
2022/01/27 14:03:44;;;;;;;;;;;8.50;99.90;;;;;;6123824;23;20151;-84
2022/01/27 14:06:11;;;;;;;19.60;3.70;;;8.60;99.90;;;;;;6103310;23;19912;-82
2022/01/27 14:08:43;;;;;;;19.73;4.05;;;8.60;99.90;;;;;;6151831;23;20024;-83
2022/01/27 14:11:15;;;;;;;13.60;2.75;;;8.50;99.90;;;;;;6124529;23;20028;-82
2022/01/27 14:13:42;;;;;;;19.45;3.58;;;8.50;99.90;;;;;;6147834;23;20021;-85
2022/01/27 14:16:08;;;;;;;24.55;4.00;;;8.40;99.90;;;;;;6147717;23;20464;-83
2022/01/27 14:18:43;;;;;;;19.80;3.40;;;8.40;99.90;;;;;;6147280;23;20330;-83
2022/01/27 14:21:09;;;;;;;14.13;2.90;;;8.40;99.90;;;;;;6147672;23;20025;-84
2022/01/27 14:26:36;;;;;;;15.55;3.70;;;8.40;99.90;;;;;;6147672;23;20100;-84
2022/01/27 14:29:07;;;;;;;12.73;2.85;;;8.30;99.90;;;;;;6123938;23;20040;-84
2022/01/27 14:31:35;;;;;;;14.00;3.83;;;8.30;99.90;;;;;;6148602;23;20020;-84
2022/01/27 14:34:00;;;;;;;11.93;2.58;;;8.30;99.90;;;;;;6124715;23;20026;-84
2022/01/27 14:36:26;;;;;;;11.95;2.97;;;8.20;99.90;;;;;;6126405;23;20437;-84
2022/01/27 14:38:53;;;;;;;8.80;2.50;;;8.00;99.90;;;;;;6149461;23;20057;-84
2022/01/27 14:41:22;;;;;;;8.75;2.33;;;7.80;99.90;;;;;;6174008;23;20024;-84
2022/01/27 14:43:49;;;;;;;11.25;3.20;;;7.60;99.90;;;;;;6146649;23;20025;-84
2022/01/27 14:46:22;;;;;;;17.00;4.05;;;7.50;99.90;;;;;;6121840;23;20025;-83
2022/01/27 14:48:53;;;;;;;19.55;4.22;;;7.60;99.90;;;;;;6141654;23;20033;-86